This is the latest recevied weather packets stored in our database for station/object KD7YDD. If no packets are shown the sender has not sent any weather packets the latest 10 day(s).
| Time | Temp. | Humidity | Pressure | Rain* | Wind** | Luminosity | Snow |
|---|---|---|---|---|---|---|---|
| 1777569075 | 11.67° C | 93% | 1015.4 hPa | 0 mm | - | 109 W/m² | - |
| 1777561877 | 6.67° C | 91% | 1016.1 hPa | 0 mm | - | 16 W/m² | - |
| 1777556478 | 6.67° C | 90% | 1015.7 hPa | 0 mm | - | 0 W/m² | - |
| 1777555877 | 6.67° C | 90% | 1015.7 hPa | 0 mm | - | 0 W/m² | - |
| 1777555301 | 6.67° C | 90% | 1015.5 hPa | 0 mm | - | 0 W/m² | - |
| 1777552877 | 6.67° C | 90% | 1015.3 hPa | 0 mm | - | 0 W/m² | - |
| 1777547477 | 6.11° C | 89% | 1015.8 hPa | 0 mm | - | 0 W/m² | - |
| 1777539117 | 7.78° C | 89% | 1016.9 hPa | 0 mm | - | 0 W/m² | - |
| 1777536676 | 7.78° C | 90% | 1017.2 hPa | 0 mm | - | 0 W/m² | - |
| 1777534277 | 7.78° C | 90% | 1017.2 hPa | 0 mm | - | 0 W/m² | - |
| 1777532476 | 8.33° C | 90% | 1017.1 hPa | 0 mm | - | 0 W/m² | - |
| 1777526478 | 10° C | 88% | 1017.3 hPa | 0 mm | - | 0 W/m² | - |
| 1777524697 | 10.56° C | 88% | 1017.3 hPa | 0 mm | - | 0 W/m² | - |
| 1777515699 | 14.44° C | 75% | 1016.2 hPa | 0 mm | - | 5 W/m² | - |
| 1777510281 | 17.78° C | 64% | 1016.2 hPa | 0 mm | - | 40 W/m² | - |
| 1777505517 | 21.11° C | 55% | 1016.1 hPa | 0 mm | - | 302 W/m² | - |
| 1777503076 | 21.11° C | 55% | 1016.7 hPa | 0 mm | - | 582 W/m² | - |
| 1777502477 | 21.11° C | 54% | 1016.7 hPa | 0 mm | - | 693 W/m² | - |
| 1777501276 | 21.67° C | 52% | 1017 hPa | 0 mm | - | 735 W/m² | - |
| 1777495276 | 23.89° C | 51% | 1017.3 hPa | 0 mm | - | 865 W/m² | - |
| 1777491117 | 21.11° C | 57% | 1018.2 hPa | 0 mm | - | 847 W/m² | - |
| 1777487476 | 18.89° C | 67% | 1018.5 hPa | 0 mm | - | 60 W/m² | - |
| 1777486876 | 18.89° C | 68% | 1018.6 hPa | 0 mm | - | 81 W/m² | - |
| 1777486280 | 17.22° C | 75% | 1018.4 hPa | 0 mm | - | 56 W/m² | - |
| 1777482676 | 11.67° C | 93% | 1018.8 hPa | 0 mm | - | 171 W/m² | - |
* Rain latest hour (hover to see other rain measurements)
** Current wind speed in m/s (hover to see current wind gust speed)